Terminal Aerodrome Forecast
Issued by NWS

Home | Current Version | Previous Version | Text Only | Print | Product List | Glossary On
Versions: 1 2 3 4 5 6 7 8 9 10 11 12 13 14 15 16 17
000
FTUS41 KCAR 202300
TAFPQI
TAF
KPQI 202339Z 2100/2124 19012G22KT P6SM SCT025 BKN050
     FM210400 19010G20KT P6SM SCT015 BKN025
     FM210900 19010KT P6SM SCT003 BKN007
     FM211200 19009KT P6SM OVC003
     FM211500 19014KT P6SM SCT015 BKN050
     FM212100 17010G20KT P6SM BKN015
      AMD LTD TO CLD VIS AND WIND=

USA.gov is the U.S. government's official web portal to all federal, state and local government web resources and services.